sensor_id;sensor_type;location;lat;lon;timestamp;pressure;altitude;pressure_sealevel;temperature;humidity
29909;BME280;36247;51.952;6.146;2023-02-12T00:00:20;103679.75;;;7.01;100.00
29909;BME280;36247;51.952;6.146;2023-02-12T00:02:46;103678.03;;;7.01;100.00
29909;BME280;36247;51.952;6.146;2023-02-12T00:05:12;103685.69;;;6.98;100.00
29909;BME280;36247;51.952;6.146;2023-02-12T00:07:38;103688.81;;;6.93;100.00
29909;BME280;36247;51.952;6.146;2023-02-12T00:10:04;103689.97;;;6.96;100.00
29909;BME280;36247;51.952;6.146;2023-02-12T00:12:29;103684.69;;;6.96;100.00
29909;BME280;36247;51.952;6.146;2023-02-12T00:14:55;103682.16;;;6.98;100.00
29909;BME280;36247;51.952;6.146;2023-02-12T00:17:20;103681.16;;;6.96;100.00
29909;BME280;36247;51.952;6.146;2023-02-12T00:19:46;103673.81;;;6.92;100.00
29909;BME280;36247;51.952;6.146;2023-02-12T00:22:12;103674.72;;;6.92;100.00
29909;BME280;36247;51.952;6.146;2023-02-12T00:24:37;103668.09;;;6.85;100.00
29909;BME280;36247;51.952;6.146;2023-02-12T00:27:03;103676.22;;;6.88;100.00
29909;BME280;36247;51.952;6.146;2023-02-12T00:29:28;103677.00;;;6.87;100.00
29909;BME280;36247;51.952;6.146;2023-02-12T00:31:53;103680.22;;;6.83;100.00
29909;BME280;36247;51.952;6.146;2023-02-12T00:34:19;103675.53;;;6.79;100.00
29909;BME280;36247;51.952;6.146;2023-02-12T00:36:45;103667.38;;;6.76;100.00
29909;BME280;36247;51.952;6.146;2023-02-12T00:39:11;103680.19;;;6.71;100.00
29909;BME280;36247;51.952;6.146;2023-02-12T00:41:36;103680.44;;;6.63;100.00
29909;BME280;36247;51.952;6.146;2023-02-12T00:44:02;103682.72;;;6.58;100.00
29909;BME280;36247;51.952;6.146;2023-02-12T00:46:27;103680.56;;;6.52;100.00
29909;BME280;36247;51.952;6.146;2023-02-12T00:48:53;103682.84;;;6.48;100.00
29909;BME280;36247;51.952;6.146;2023-02-12T00:51:18;103685.22;;;6.45;100.00
29909;BME280;36247;51.952;6.146;2023-02-12T00:53:44;103689.66;;;6.34;100.00
29909;BME280;36247;51.952;6.146;2023-02-12T00:56:09;103691.03;;;6.29;100.00
29909;BME280;36247;51.952;6.146;2023-02-12T00:58:35;103689.97;;;6.27;100.00
29909;BME280;36247;51.952;6.146;2023-02-12T01:01:00;103693.97;;;6.22;100.00
29909;BME280;36247;51.952;6.146;2023-02-12T01:03:26;103687.94;;;6.23;100.00
29909;BME280;36247;51.952;6.146;2023-02-12T01:05:52;103690.66;;;6.12;100.00
29909;BME280;36247;51.952;6.146;2023-02-12T01:08:19;103695.91;;;6.12;100.00
29909;BME280;36247;51.952;6.146;2023-02-12T01:10:53;103692.47;;;6.13;100.00
29909;BME280;36247;51.952;6.146;2023-02-12T01:13:19;103694.53;;;6.17;100.00
29909;BME280;36247;51.952;6.146;2023-02-12T01:15:46;103695.69;;;6.09;100.00
29909;BME280;36247;51.952;6.146;2023-02-12T01:18:11;103696.47;;;6.08;100.00
29909;BME280;36247;51.952;6.146;2023-02-12T01:20:38;103699.56;;;6.14;100.00
29909;BME280;36247;51.952;6.146;2023-02-12T01:23:04;103694.41;;;6.16;100.00
29909;BME280;36247;51.952;6.146;2023-02-12T01:25:31;103698.06;;;6.06;100.00
29909;BME280;36247;51.952;6.146;2023-02-12T01:27:56;103697.38;;;6.09;100.00
29909;BME280;36247;51.952;6.146;2023-02-12T01:30:22;103702.59;;;5.97;100.00
29909;BME280;36247;51.952;6.146;2023-02-12T01:32:50;103700.50;;;5.93;100.00
29909;BME280;36247;51.952;6.146;2023-02-12T01:35:15;103698.97;;;5.85;100.00
29909;BME280;36247;51.952;6.146;2023-02-12T01:37:41;103700.19;;;5.78;100.00
29909;BME280;36247;51.952;6.146;2023-02-12T01:40:08;103701.78;;;5.76;100.00
29909;BME280;36247;51.952;6.146;2023-02-12T01:42:33;103699.97;;;5.75;100.00
29909;BME280;36247;51.952;6.146;2023-02-12T01:47:40;103695.31;;;5.82;100.00
29909;BME280;36247;51.952;6.146;2023-02-12T01:50:08;103688.56;;;5.86;100.00
29909;BME280;36247;51.952;6.146;2023-02-12T01:52:37;103687.28;;;5.81;100.00
29909;BME280;36247;51.952;6.146;2023-02-12T01:55:07;103680.13;;;5.68;100.00
29909;BME280;36247;51.952;6.146;2023-02-12T01:57:35;103680.38;;;5.71;100.00
29909;BME280;36247;51.952;6.146;2023-02-12T02:00:07;103685.50;;;5.70;100.00
29909;BME280;36247;51.952;6.146;2023-02-12T02:02:41;103687.84;;;5.77;100.00
29909;BME280;36247;51.952;6.146;2023-02-12T02:05:07;103688.31;;;5.83;100.00
29909;BME280;36247;51.952;6.146;2023-02-12T02:07:33;103688.44;;;5.85;100.00
29909;BME280;36247;51.952;6.146;2023-02-12T02:09:58;103687.41;;;5.82;100.00
29909;BME280;36247;51.952;6.146;2023-02-12T02:12:27;103684.47;;;5.68;100.00
29909;BME280;36247;51.952;6.146;2023-02-12T02:15:12;103682.56;;;5.55;100.00
29909;BME280;36247;51.952;6.146;2023-02-12T02:30:42;103673.72;;;5.42;100.00
29909;BME280;36247;51.952;6.146;2023-02-12T02:33:12;103670.13;;;5.42;100.00
29909;BME280;36247;51.952;6.146;2023-02-12T02:35:54;103675.69;;;5.45;100.00
29909;BME280;36247;51.952;6.146;2023-02-12T02:38:35;103675.09;;;5.27;100.00
29909;BME280;36247;51.952;6.146;2023-02-12T02:41:08;103669.06;;;5.18;100.00
29909;BME280;36247;51.952;6.146;2023-02-12T02:43:52;103665.41;;;5.16;100.00
29909;BME280;36247;51.952;6.146;2023-02-12T02:46:36;103670.81;;;5.17;100.00
29909;BME280;36247;51.952;6.146;2023-02-12T02:49:06;103668.84;;;5.15;100.00
29909;BME280;36247;51.952;6.146;2023-02-12T02:51:37;103665.59;;;5.07;100.00
29909;BME280;36247;51.952;6.146;2023-02-12T02:54:14;103668.38;;;4.98;100.00
29909;BME280;36247;51.952;6.146;2023-02-12T02:56:44;103666.41;;;4.95;100.00
29909;BME280;36247;51.952;6.146;2023-02-12T02:59:33;103661.56;;;5.00;100.00
29909;BME280;36247;51.952;6.146;2023-02-12T03:02:06;103664.69;;;5.06;100.00
29909;BME280;36247;51.952;6.146;2023-02-12T03:04:38;103665.59;;;5.07;100.00
29909;BME280;36247;51.952;6.146;2023-02-12T03:07:10;103665.47;;;5.05;100.00
29909;BME280;36247;51.952;6.146;2023-02-12T03:09:42;103659.16;;;5.03;100.00
29909;BME280;36247;51.952;6.146;2023-02-12T03:12:24;103675.25;;;4.86;100.00
29909;BME280;36247;51.952;6.146;2023-02-12T03:17:44;103666.72;;;4.88;100.00
29909;BME280;36247;51.952;6.146;2023-02-12T03:20:27;103673.44;;;4.74;100.00
29909;BME280;36247;51.952;6.146;2023-02-12T03:22:57;103683.94;;;4.74;100.00
29909;BME280;36247;51.952;6.146;2023-02-12T03:25:33;103672.75;;;4.87;100.00
29909;BME280;36247;51.952;6.146;2023-02-12T03:28:19;103669.34;;;4.88;100.00
29909;BME280;36247;51.952;6.146;2023-02-12T03:33:22;103667.38;;;4.86;100.00
29909;BME280;36247;51.952;6.146;2023-02-12T03:36:01;103655.63;;;4.92;100.00
29909;BME280;36247;51.952;6.146;2023-02-12T03:38:41;103665.53;;;4.85;100.00
29909;BME280;36247;51.952;6.146;2023-02-12T03:43:59;103677.22;;;4.88;100.00
29909;BME280;36247;51.952;6.146;2023-02-12T03:46:42;103674.75;;;4.80;100.00
29909;BME280;36247;51.952;6.146;2023-02-12T03:49:19;103669.63;;;4.81;100.00
29909;BME280;36247;51.952;6.146;2023-02-12T03:51:46;103676.06;;;4.74;100.00
29909;BME280;36247;51.952;6.146;2023-02-12T03:54:15;103679.63;;;4.75;100.00
29909;BME280;36247;51.952;6.146;2023-02-12T03:56:56;103677.50;;;4.81;100.00
29909;BME280;36247;51.952;6.146;2023-02-12T03:59:24;103680.00;;;4.80;100.00
29909;BME280;36247;51.952;6.146;2023-02-12T04:01:51;103682.38;;;4.76;100.00
29909;BME280;36247;51.952;6.146;2023-02-12T04:04:17;103683.91;;;4.85;100.00
29909;BME280;36247;51.952;6.146;2023-02-12T04:06:45;103689.28;;;4.86;100.00
29909;BME280;36247;51.952;6.146;2023-02-12T04:09:12;103683.41;;;4.79;100.00
29909;BME280;36247;51.952;6.146;2023-02-12T04:14:54;103681.25;;;4.52;100.00
29909;BME280;36247;51.952;6.146;2023-02-12T04:17:29;103682.03;;;4.51;100.00
29909;BME280;36247;51.952;6.146;2023-02-12T04:25:25;103693.53;;;4.74;100.00
29909;BME280;36247;51.952;6.146;2023-02-12T04:28:09;103699.56;;;4.63;100.00
29909;BME280;36247;51.952;6.146;2023-02-12T04:30:45;103694.38;;;4.52;100.00
29909;BME280;36247;51.952;6.146;2023-02-12T04:33:17;103701.56;;;4.45;100.00
29909;BME280;36247;51.952;6.146;2023-02-12T04:35:56;103703.41;;;4.56;100.00
29909;BME280;36247;51.952;6.146;2023-02-12T04:38:40;103705.75;;;4.73;100.00
29909;BME280;36247;51.952;6.146;2023-02-12T04:41:08;103716.66;;;4.78;100.00
29909;BME280;36247;51.952;6.146;2023-02-12T04:43:35;103713.88;;;4.76;100.00
29909;BME280;36247;51.952;6.146;2023-02-12T04:46:02;103716.13;;;4.72;100.00
29909;BME280;36247;51.952;6.146;2023-02-12T04:48:28;103712.31;;;4.79;100.00
29909;BME280;36247;51.952;6.146;2023-02-12T04:50:54;103716.38;;;4.75;100.00
29909;BME280;36247;51.952;6.146;2023-02-12T04:53:19;103728.72;;;4.76;100.00
29909;BME280;36247;51.952;6.146;2023-02-12T04:55:45;103729.66;;;4.76;100.00
29909;BME280;36247;51.952;6.146;2023-02-12T04:58:12;103721.91;;;4.78;100.00
29909;BME280;36247;51.952;6.146;2023-02-12T05:00:38;103722.81;;;4.79;100.00
29909;BME280;36247;51.952;6.146;2023-02-12T05:03:04;103726.22;;;4.77;100.00
29909;BME280;36247;51.952;6.146;2023-02-12T05:05:29;103720.69;;;4.85;100.00
29909;BME280;36247;51.952;6.146;2023-02-12T05:07:55;103718.19;;;4.86;100.00
29909;BME280;36247;51.952;6.146;2023-02-12T05:10:20;103722.13;;;4.91;100.00
29909;BME280;36247;51.952;6.146;2023-02-12T05:12:46;103719.91;;;4.86;100.00
29909;BME280;36247;51.952;6.146;2023-02-12T05:15:11;103722.78;;;4.89;100.00
29909;BME280;36247;51.952;6.146;2023-02-12T05:17:36;103718.56;;;4.91;100.00
29909;BME280;36247;51.952;6.146;2023-02-12T05:20:03;103712.28;;;4.89;100.00
29909;BME280;36247;51.952;6.146;2023-02-12T05:22:29;103715.13;;;5.02;100.00
29909;BME280;36247;51.952;6.146;2023-02-12T05:24:54;103719.59;;;5.03;100.00
29909;BME280;36247;51.952;6.146;2023-02-12T05:27:19;103712.50;;;5.02;100.00
29909;BME280;36247;51.952;6.146;2023-02-12T05:29:45;103722.75;;;5.09;100.00
29909;BME280;36247;51.952;6.146;2023-02-12T05:32:10;103722.75;;;5.09;100.00
29909;BME280;36247;51.952;6.146;2023-02-12T05:34:36;103719.59;;;5.14;100.00
29909;BME280;36247;51.952;6.146;2023-02-12T05:37:01;103712.47;;;5.12;100.00
29909;BME280;36247;51.952;6.146;2023-02-12T05:39:27;103718.38;;;5.10;100.00
29909;BME280;36247;51.952;6.146;2023-02-12T05:41:52;103720.63;;;5.16;100.00
29909;BME280;36247;51.952;6.146;2023-02-12T05:44:17;103723.75;;;5.22;100.00
29909;BME280;36247;51.952;6.146;2023-02-12T05:46:43;103718.19;;;5.29;100.00
29909;BME280;36247;51.952;6.146;2023-02-12T05:49:09;103721.88;;;5.21;100.00
29909;BME280;36247;51.952;6.146;2023-02-12T05:51:34;103723.63;;;5.20;100.00
29909;BME280;36247;51.952;6.146;2023-02-12T05:54:03;103726.66;;;5.15;100.00
29909;BME280;36247;51.952;6.146;2023-02-12T05:56:31;103723.75;;;5.22;100.00
29909;BME280;36247;51.952;6.146;2023-02-12T05:59:10;103715.88;;;5.11;100.00
29909;BME280;36247;51.952;6.146;2023-02-12T06:01:41;103727.34;;;5.12;100.00
29909;BME280;36247;51.952;6.146;2023-02-12T06:04:12;103730.34;;;5.17;100.00
29909;BME280;36247;51.952;6.146;2023-02-12T06:06:38;103727.28;;;5.22;100.00
29909;BME280;36247;51.952;6.146;2023-02-12T06:09:07;103729.50;;;5.28;100.00
29909;BME280;36247;51.952;6.146;2023-02-12T06:11:32;103726.34;;;5.32;100.00
29909;BME280;36247;51.952;6.146;2023-02-12T06:14:04;103732.25;;;5.29;100.00
29909;BME280;36247;51.952;6.146;2023-02-12T06:16:30;103730.72;;;5.21;100.00
29909;BME280;36247;51.952;6.146;2023-02-12T06:18:56;103732.00;;;5.26;100.00
29909;BME280;36247;51.952;6.146;2023-02-12T06:21:23;103736.09;;;5.23;100.00
29909;BME280;36247;51.952;6.146;2023-02-12T06:23:49;103736.59;;;5.29;100.00
29909;BME280;36247;51.952;6.146;2023-02-12T06:26:16;103733.31;;;5.32;100.00
29909;BME280;36247;51.952;6.146;2023-02-12T06:28:41;103737.25;;;5.26;100.00
29909;BME280;36247;51.952;6.146;2023-02-12T06:31:35;103737.63;;;5.31;100.00
29909;BME280;36247;51.952;6.146;2023-02-12T06:34:06;103737.50;;;5.29;100.00
29909;BME280;36247;51.952;6.146;2023-02-12T06:36:32;103746.00;;;5.37;100.00
29909;BME280;36247;51.952;6.146;2023-02-12T06:39:00;103746.94;;;5.38;100.00
29909;BME280;36247;51.952;6.146;2023-02-12T06:41:27;103743.81;;;5.32;100.00
29909;BME280;36247;51.952;6.146;2023-02-12T06:43:53;103752.09;;;5.36;100.00
29909;BME280;36247;51.952;6.146;2023-02-12T06:46:18;103748.88;;;5.40;100.00
29909;BME280;36247;51.952;6.146;2023-02-12T06:48:44;103746.53;;;5.43;100.00
29909;BME280;36247;51.952;6.146;2023-02-12T06:51:12;103748.66;;;5.37;100.00
29909;BME280;36247;51.952;6.146;2023-02-12T06:53:37;103751.72;;;5.54;100.00
29909;BME280;36247;51.952;6.146;2023-02-12T06:56:04;103756.13;;;5.43;100.00
29909;BME280;36247;51.952;6.146;2023-02-12T06:58:31;103752.34;;;5.39;100.00
29909;BME280;36247;51.952;6.146;2023-02-12T07:01:07;103758.47;;;5.50;100.00
29909;BME280;36247;51.952;6.146;2023-02-12T07:03:33;103753.09;;;5.48;100.00
29909;BME280;36247;51.952;6.146;2023-02-12T07:05:58;103766.06;;;5.57;100.00
29909;BME280;36247;51.952;6.146;2023-02-12T07:08:24;103761.47;;;5.55;100.00
29909;BME280;36247;51.952;6.146;2023-02-12T07:10:49;103760.81;;;5.57;100.00
29909;BME280;36247;51.952;6.146;2023-02-12T07:13:14;103761.63;;;5.46;100.00
29909;BME280;36247;51.952;6.146;2023-02-12T07:15:40;103759.38;;;5.51;100.00
29909;BME280;36247;51.952;6.146;2023-02-12T07:18:05;103768.06;;;5.50;100.00
29909;BME280;36247;51.952;6.146;2023-02-12T07:20:31;103767.25;;;5.51;100.00
29909;BME280;36247;51.952;6.146;2023-02-12T07:22:56;103768.81;;;5.59;100.00
29909;BME280;36247;51.952;6.146;2023-02-12T07:25:22;103776.16;;;5.63;100.00
29909;BME280;36247;51.952;6.146;2023-02-12T07:27:47;103770.78;;;5.61;100.00
29909;BME280;36247;51.952;6.146;2023-02-12T07:30:13;103778.22;;;5.67;100.00
29909;BME280;36247;51.952;6.146;2023-02-12T07:32:38;103781.06;;;5.58;100.00
29909;BME280;36247;51.952;6.146;2023-02-12T07:35:04;103781.72;;;5.56;100.00
29909;BME280;36247;51.952;6.146;2023-02-12T07:37:29;103784.84;;;5.62;100.00
29909;BME280;36247;51.952;6.146;2023-02-12T07:39:55;103779.59;;;5.62;100.00
29909;BME280;36247;51.952;6.146;2023-02-12T07:42:20;103782.03;;;5.71;100.00
29909;BME280;36247;51.952;6.146;2023-02-12T07:44:48;103781.88;;;5.79;100.00
29909;BME280;36247;51.952;6.146;2023-02-12T07:47:14;103788.41;;;5.85;100.00
29909;BME280;36247;51.952;6.146;2023-02-12T07:49:40;103790.56;;;5.78;100.00
29909;BME280;36247;51.952;6.146;2023-02-12T07:52:05;103789.72;;;5.90;100.00
29909;BME280;36247;51.952;6.146;2023-02-12T07:54:31;103784.59;;;5.91;100.00
29909;BME280;36247;51.952;6.146;2023-02-12T07:56:57;103786.41;;;5.92;100.00
29909;BME280;36247;51.952;6.146;2023-02-12T07:59:22;103793.91;;;5.98;100.00
29909;BME280;36247;51.952;6.146;2023-02-12T08:01:49;103794.50;;;6.06;100.00
29909;BME280;36247;51.952;6.146;2023-02-12T08:04:18;103792.81;;;6.06;100.00
29909;BME280;36247;51.952;6.146;2023-02-12T08:06:46;103790.09;;;6.16;100.00
29909;BME280;36247;51.952;6.146;2023-02-12T08:09:17;103797.31;;;6.19;100.00
29909;BME280;36247;51.952;6.146;2023-02-12T08:11:43;103804.31;;;6.18;100.00
29909;BME280;36247;51.952;6.146;2023-02-12T08:14:11;103805.88;;;6.16;100.00
29909;BME280;36247;51.952;6.146;2023-02-12T08:16:38;103807.06;;;6.20;100.00
29909;BME280;36247;51.952;6.146;2023-02-12T08:19:04;103810.53;;;6.31;100.00
29909;BME280;36247;51.952;6.146;2023-02-12T08:21:31;103810.00;;;6.35;100.00
29909;BME280;36247;51.952;6.146;2023-02-12T08:23:57;103817.66;;;6.32;100.00
29909;BME280;36247;51.952;6.146;2023-02-12T08:26:24;103819.16;;;6.40;100.00
29909;BME280;36247;51.952;6.146;2023-02-12T08:29:14;103820.47;;;6.45;100.00
29909;BME280;36247;51.952;6.146;2023-02-12T08:31:44;103815.91;;;6.55;100.00
29909;BME280;36247;51.952;6.146;2023-02-12T08:34:23;103818.53;;;6.55;100.00
29909;BME280;36247;51.952;6.146;2023-02-12T08:36:50;103820.94;;;6.51;100.00
29909;BME280;36247;51.952;6.146;2023-02-12T08:39:16;103817.75;;;6.56;100.00
29909;BME280;36247;51.952;6.146;2023-02-12T08:41:42;103823.13;;;6.57;100.00
29909;BME280;36247;51.952;6.146;2023-02-12T08:44:09;103829.06;;;6.55;100.00
29909;BME280;36247;51.952;6.146;2023-02-12T08:46:37;103825.41;;;6.52;100.00
29909;BME280;36247;51.952;6.146;2023-02-12T08:49:10;103831.72;;;6.55;100.00
29909;BME280;36247;51.952;6.146;2023-02-12T08:51:39;103830.03;;;6.67;100.00
29909;BME280;36247;51.952;6.146;2023-02-12T08:54:07;103832.91;;;6.70;100.00
29909;BME280;36247;51.952;6.146;2023-02-12T08:56:34;103834.97;;;6.74;100.00
29909;BME280;36247;51.952;6.146;2023-02-12T08:59:01;103842.69;;;6.83;100.00
29909;BME280;36247;51.952;6.146;2023-02-12T09:01:30;103848.97;;;6.85;100.00
29909;BME280;36247;51.952;6.146;2023-02-12T09:03:56;103844.06;;;6.89;100.00
29909;BME280;36247;51.952;6.146;2023-02-12T09:06:23;103843.84;;;6.98;100.00
29909;BME280;36247;51.952;6.146;2023-02-12T09:08:49;103845.81;;;7.01;100.00
29909;BME280;36247;51.952;6.146;2023-02-12T09:11:17;103846.50;;;6.98;100.00
29909;BME280;36247;51.952;6.146;2023-02-12T09:13:45;103846.84;;;7.03;100.00
29909;BME280;36247;51.952;6.146;2023-02-12T09:16:11;103845.97;;;7.14;100.00
29909;BME280;36247;51.952;6.146;2023-02-12T09:18:37;103848.00;;;7.06;100.00
29909;BME280;36247;51.952;6.146;2023-02-12T09:21:09;103845.06;;;7.14;100.00
29909;BME280;36247;51.952;6.146;2023-02-12T09:23:36;103847.59;;;7.24;100.00
29909;BME280;36247;51.952;6.146;2023-02-12T09:26:06;103850.34;;;7.26;100.00
29909;BME280;36247;51.952;6.146;2023-02-12T09:28:33;103853.66;;;7.23;100.00
29909;BME280;36247;51.952;6.146;2023-02-12T09:30:58;103859.94;;;7.25;100.00
29909;BME280;36247;51.952;6.146;2023-02-12T09:33:28;103857.53;;;7.28;100.00
29909;BME280;36247;51.952;6.146;2023-02-12T09:35:53;103858.94;;;7.35;100.00
29909;BME280;36247;51.952;6.146;2023-02-12T09:38:19;103858.94;;;7.35;100.00
29909;BME280;36247;51.952;6.146;2023-02-12T09:43:52;103852.84;;;7.36;100.00
29909;BME280;36247;51.952;6.146;2023-02-12T09:51:41;103849.06;;;7.44;100.00
29909;BME280;36247;51.952;6.146;2023-02-12T09:54:14;103844.94;;;7.59;100.00
29909;BME280;36247;51.952;6.146;2023-02-12T09:56:44;103842.19;;;7.58;100.00
29909;BME280;36247;51.952;6.146;2023-02-12T09:59:13;103842.28;;;7.59;100.00
29909;BME280;36247;51.952;6.146;2023-02-12T10:01:41;103842.75;;;7.66;100.00
29909;BME280;36247;51.952;6.146;2023-02-12T10:04:06;103845.38;;;7.66;100.00
29909;BME280;36247;51.952;6.146;2023-02-12T10:06:36;103850.09;;;7.70;100.00
29909;BME280;36247;51.952;6.146;2023-02-12T10:09:21;103839.53;;;7.70;100.00
29909;BME280;36247;51.952;6.146;2023-02-12T10:17:36;103845.84;;;7.84;100.00
29909;BME280;36247;51.952;6.146;2023-02-12T10:28:07;103843.53;;;7.88;100.00
29909;BME280;36247;51.952;6.146;2023-02-12T10:33:12;103845.44;;;8.03;100.00
29909;BME280;36247;51.952;6.146;2023-02-12T10:35:43;103836.72;;;8.04;100.00
29909;BME280;36247;51.952;6.146;2023-02-12T10:38:18;103838.47;;;8.03;100.00
29909;BME280;36247;51.952;6.146;2023-02-12T10:40:44;103847.41;;;8.05;100.00
29909;BME280;36247;51.952;6.146;2023-02-12T10:43:12;103840.16;;;8.03;100.00
29909;BME280;36247;51.952;6.146;2023-02-12T10:45:39;103844.28;;;8.11;100.00
29909;BME280;36247;51.952;6.146;2023-02-12T10:48:19;103851.16;;;8.09;100.00
29909;BME280;36247;51.952;6.146;2023-02-12T10:53:41;103838.53;;;8.17;100.00
29909;BME280;36247;51.952;6.146;2023-02-12T10:56:20;103844.47;;;8.26;100.00
29909;BME280;36247;51.952;6.146;2023-02-12T10:58:58;103840.91;;;8.25;100.00
29909;BME280;36247;51.952;6.146;2023-02-12T11:03:53;103832.94;;;8.37;100.00
29909;BME280;36247;51.952;6.146;2023-02-12T11:06:25;103829.06;;;8.44;100.00
29909;BME280;36247;51.952;6.146;2023-02-12T11:08:52;103826.47;;;8.57;100.00
29909;BME280;36247;51.952;6.146;2023-02-12T11:13:53;103825.41;;;8.80;100.00
29909;BME280;36247;51.952;6.146;2023-02-12T11:16:31;103816.56;;;8.80;100.00
29909;BME280;36247;51.952;6.146;2023-02-12T11:19:09;103815.34;;;8.88;100.00
29909;BME280;36247;51.952;6.146;2023-02-12T11:21:43;103821.28;;;8.97;100.00
29909;BME280;36247;51.952;6.146;2023-02-12T11:24:38;103813.97;;;8.93;100.00
29909;BME280;36247;51.952;6.146;2023-02-12T11:27:30;103806.03;;;8.93;100.00
29909;BME280;36247;51.952;6.146;2023-02-12T11:30:18;103812.50;;;8.85;100.00
29909;BME280;36247;51.952;6.146;2023-02-12T11:32:44;103812.00;;;8.91;100.00
29909;BME280;36247;51.952;6.146;2023-02-12T11:35:18;103810.91;;;8.87;100.00
29909;BME280;36247;51.952;6.146;2023-02-12T11:37:51;103808.97;;;8.98;100.00
29909;BME280;36247;51.952;6.146;2023-02-12T11:40:29;103816.03;;;9.11;100.00
29909;BME280;36247;51.952;6.146;2023-02-12T11:43:01;103799.53;;;9.15;100.00
29909;BME280;36247;51.952;6.146;2023-02-12T11:45:45;103800.25;;;9.12;100.00
29909;BME280;36247;51.952;6.146;2023-02-12T11:48:19;103797.72;;;9.27;100.00
29909;BME280;36247;51.952;6.146;2023-02-12T11:50:53;103798.44;;;9.25;100.00
29909;BME280;36247;51.952;6.146;2023-02-12T11:53:26;103795.19;;;9.15;100.00
29909;BME280;36247;51.952;6.146;2023-02-12T11:56:06;103799.97;;;9.21;100.00
29909;BME280;36247;51.952;6.146;2023-02-12T11:58:32;103787.34;;;9.30;100.00
29909;BME280;36247;51.952;6.146;2023-02-12T12:01:03;103790.09;;;9.32;100.00
29909;BME280;36247;51.952;6.146;2023-02-12T12:06:28;103788.44;;;9.34;100.00
29909;BME280;36247;51.952;6.146;2023-02-12T12:12:20;103785.50;;;9.29;100.00
29909;BME280;36247;51.952;6.146;2023-02-12T12:20:35;103780.31;;;9.04;100.00
29909;BME280;36247;51.952;6.146;2023-02-12T12:23:24;103784.69;;;9.04;100.00
29909;BME280;36247;51.952;6.146;2023-02-12T12:26:02;103777.56;;;9.03;100.00
29909;BME280;36247;51.952;6.146;2023-02-12T12:31:43;103765.97;;;9.14;100.00
29909;BME280;36247;51.952;6.146;2023-02-12T12:34:18;103761.69;;;9.16;100.00
29909;BME280;36247;51.952;6.146;2023-02-12T13:04:41;103738.38;;;9.24;100.00
29909;BME280;36247;51.952;6.146;2023-02-12T13:07:18;103740.53;;;9.03;100.00
29909;BME280;36247;51.952;6.146;2023-02-12T13:15:40;103731.41;;;9.11;100.00
29909;BME280;36247;51.952;6.146;2023-02-12T13:23:40;103728.53;;;9.21;100.00
29909;BME280;36247;51.952;6.146;2023-02-12T13:26:24;103725.69;;;9.05;100.00
29909;BME280;36247;51.952;6.146;2023-02-12T13:29:04;103730.25;;;9.07;100.00
29909;BME280;36247;51.952;6.146;2023-02-12T13:31:39;103725.16;;;8.83;100.00
29909;BME280;36247;51.952;6.146;2023-02-12T13:34:12;103722.00;;;8.89;100.00
29909;BME280;36247;51.952;6.146;2023-02-12T13:36:40;103726.28;;;8.87;100.00
29909;BME280;36247;51.952;6.146;2023-02-12T13:39:24;103726.91;;;8.83;100.00
29909;BME280;36247;51.952;6.146;2023-02-12T13:42:06;103729.13;;;8.77;100.00
29909;BME280;36247;51.952;6.146;2023-02-12T13:47:15;103722.09;;;8.77;100.00
29909;BME280;36247;51.952;6.146;2023-02-12T13:52:32;103715.22;;;8.93;100.00
29909;BME280;36247;51.952;6.146;2023-02-12T13:57:44;103712.03;;;9.12;100.00
29909;BME280;36247;51.952;6.146;2023-02-12T14:03:12;103709.59;;;8.88;100.00
29909;BME280;36247;51.952;6.146;2023-02-12T14:05:38;103706.94;;;8.88;100.00
29909;BME280;36247;51.952;6.146;2023-02-12T14:08:04;103713.25;;;8.77;100.00
29909;BME280;36247;51.952;6.146;2023-02-12T14:10:37;103713.88;;;8.86;100.00
29909;BME280;36247;51.952;6.146;2023-02-12T14:13:23;103711.84;;;8.95;100.00
29909;BME280;36247;51.952;6.146;2023-02-12T14:15:53;103713.47;;;8.80;100.00
29909;BME280;36247;51.952;6.146;2023-02-12T14:20:46;103712.47;;;8.91;100.00
29909;BME280;36247;51.952;6.146;2023-02-12T14:23:26;103715.94;;;8.90;100.00
29909;BME280;36247;51.952;6.146;2023-02-12T14:25:58;103711.63;;;8.79;100.00
29909;BME280;36247;51.952;6.146;2023-02-12T14:28:40;103713.69;;;8.83;100.00
29909;BME280;36247;51.952;6.146;2023-02-12T14:33:45;103710.22;;;8.84;100.00
29909;BME280;36247;51.952;6.146;2023-02-12T14:36:17;103705.94;;;8.86;100.00
29909;BME280;36247;51.952;6.146;2023-02-12T14:41:24;103709.19;;;8.82;100.00
29909;BME280;36247;51.952;6.146;2023-02-12T14:49:29;103707.47;;;8.82;100.00
29909;BME280;36247;51.952;6.146;2023-02-12T14:54:44;103697.00;;;8.84;100.00
29909;BME280;36247;51.952;6.146;2023-02-12T14:59:45;103705.72;;;8.70;100.00
29909;BME280;36247;51.952;6.146;2023-02-12T15:02:35;103703.38;;;8.61;100.00
29909;BME280;36247;51.952;6.146;2023-02-12T15:05:13;103697.69;;;8.68;100.00
29909;BME280;36247;51.952;6.146;2023-02-12T15:07:47;103704.72;;;8.68;100.00
29909;BME280;36247;51.952;6.146;2023-02-12T15:10:22;103698.59;;;8.69;100.00
29909;BME280;36247;51.952;6.146;2023-02-12T15:21:15;103700.41;;;8.56;100.00
29909;BME280;36247;51.952;6.146;2023-02-12T15:23:45;103697.09;;;8.59;100.00
29909;BME280;36247;51.952;6.146;2023-02-12T15:26:14;103690.47;;;8.65;100.00
29909;BME280;36247;51.952;6.146;2023-02-12T15:28:40;103684.88;;;8.61;100.00
29909;BME280;36247;51.952;6.146;2023-02-12T15:31:07;103685.59;;;8.58;100.00
29909;BME280;36247;51.952;6.146;2023-02-12T15:33:39;103682.81;;;8.57;100.00
29909;BME280;36247;51.952;6.146;2023-02-12T15:36:08;103682.97;;;8.58;100.00
29909;BME280;36247;51.952;6.146;2023-02-12T15:38:39;103682.03;;;8.58;100.00
29909;BME280;36247;51.952;6.146;2023-02-12T15:41:06;103680.41;;;8.46;100.00